CST,Max TemperatureF,Mean TemperatureF,Min TemperatureF,Max Dew PointF,MeanDew PointF,Min DewpointF,Max Humidity, Mean Humidity, Min Humidity, Max Sea Level PressureIn, Mean Sea Level PressureIn, Min Sea Level PressureIn, Max VisibilityMiles, Mean VisibilityMiles, Min VisibilityMiles, Max Wind SpeedMPH, Mean Wind SpeedMPH, Max Gust SpeedMPH,PrecipitationIn, CloudCover, Events, WindDirDegrees
2013-12-1,37,32,26,26,24,22,91,75,55,30.13,30.07,29.98,10,8,5,7,4,,0.00,2,,5
2013-12-2,39,32,24,32,28,24,98,84,65,29.98,29.86,29.75,10,7,1,14,5,17,0.04,4,Snow,102
2013-12-3,38,36,33,38,36,32,100,99,93,29.76,29.72,29.69,5,2,0,16,11,21,0.03,8,Fog-Rain-Snow,78
2013-12-4,48,42,34,48,40,30,100,99,85,29.76,29.61,29.43,10,2,0,26,9,33,0.01,8,Fog-Rain,93
2013-12-5,33,23,13,30,12,5,84,65,48,30.26,29.96,29.60,10,10,10,29,19,34,0.00,2,,250
2013-12-6,14,10,5,5,-1,-4,73,64,50,30.52,30.37,30.23,10,10,10,10,8,17,0.00,0,,292
2013-12-7,13,6,0,-2,-5,-8,74,62,44,30.66,30.60,30.52,10,10,10,10,6,,0.00,0,,288
2013-12-8,21,13,5,19,7,-5,90,71,52,30.58,30.26,29.93,10,6,1,13,5,20,0.01,8,Snow,30
2013-12-9,17,6,-5,14,1,-13,88,72,55,30.14,30.02,29.90,10,7,0,29,10,34,0.01,2,Snow,242
2013-12-10,17,5,-7,7,-2,-14,77,65,52,30.22,30.03,29.89,10,9,1,20,12,28,0.00,5,Snow,222
2013-12-11,12,2,-8,8,-7,-17,84,62,45,30.49,30.38,30.22,10,9,1,13,7,21,0.00,3,Snow,268
2013-12-12,15,4,-6,8,-2,-15,73,65,56,30.45,30.27,30.15,10,10,3,15,9,,0.00,4,Snow,213
2013-12-13,22,16,11,14,10,6,80,73,61,30.21,30.17,30.12,10,10,10,15,6,23,0.00,7,,37
2013-12-14,23,20,17,19,16,12,90,84,76,30.18,30.04,29.90,10,7,2,15,10,22,0.00,7,Snow,358
2013-12-15,19,10,0,16,-3,-13,90,60,47,30.10,29.99,29.88,10,10,4,14,8,21,0.00,4,Snow,281
2013-12-16,13,4,-6,11,-3,-14,90,70,53,30.12,30.05,29.97,10,9,0,10,4,,0.03,5,Snow,217
2013-12-17,32,22,13,22,16,11,93,74,54,30.04,29.93,29.86,10,8,1,15,11,24,0.00,7,Snow,246
2013-12-18,31,19,7,21,10,0,78,63,43,30.08,29.91,29.74,10,10,10,21,8,28,0.00,1,,197
2013-12-19,28,24,20,25,21,16,96,85,67,29.98,29.90,29.77,10,8,0,16,6,23,0.00,4,Fog-Snow,18
2013-12-20,23,22,20,21,20,18,96,90,86,29.90,29.84,29.80,10,8,1,16,12,22,0.00,8,Snow,3
2013-12-21,26,24,22,26,23,21,98,96,94,29.87,29.83,29.71,10,3,0,13,6,20,0.00,8,Fog,2
2013-12-22,25,21,17,24,19,16,96,88,77,30.09,29.87,29.69,10,5,0,17,11,23,0.00,8,Snow,344
2013-12-23,18,10,3,17,9,-2,93,83,75,30.38,30.26,30.09,10,3,1,13,4,,0.00,8,Snow,248
2013-12-24,9,-1,-11,6,-6,-18,84,75,64,30.50,30.42,30.27,10,9,1,12,4,,0.00,2,Snow,176
2013-12-25,22,16,10,19,14,6,92,85,70,30.26,30.12,30.04,10,5,0,13,10,16,0.00,8,Snow,208
2013-12-26,21,14,7,19,12,3,93,81,70,30.22,30.15,30.05,10,9,1,9,5,,0.00,7,Snow,204
2013-12-27,32,20,9,27,19,6,96,84,74,30.23,30.11,29.97,10,6,0,18,5,24,0.00,3,Fog,185
2013-12-28,39,30,22,28,26,21,96,78,64,30.02,29.90,29.74,10,10,5,20,8,26,0.00,0,,194
2013-12-29,34,16,-4,28,10,-13,93,72,56,30.20,29.96,29.71,10,9,2,24,10,31,0.00,5,,304
2013-12-30,0,-8,-15,-5,-15,-22,78,65,48,30.30,30.22,30.15,10,8,2,7,4,,0.00,3,Snow,247
2013-12-31,6,2,-2,0,-6,-14,77,68,54,30.34,30.24,30.14,10,10,2,10,6,,0.00,7,Snow,268